sensor_id;sensor_type;location;lat;lon;timestamp;temperature;humidity
17148;DHT22;8689;47.364;8.796;2024-02-21T00:00:15;1.90;99.90
17148;DHT22;8689;47.364;8.796;2024-02-21T00:05:29;1.90;99.90
17148;DHT22;8689;47.364;8.796;2024-02-21T00:07:59;1.90;99.90
17148;DHT22;8689;47.364;8.796;2024-02-21T00:10:26;1.90;99.90
17148;DHT22;8689;47.364;8.796;2024-02-21T00:12:54;2.00;99.90
17148;DHT22;8689;47.364;8.796;2024-02-21T00:15:21;1.90;99.90
17148;DHT22;8689;47.364;8.796;2024-02-21T00:17:48;1.90;99.90
17148;DHT22;8689;47.364;8.796;2024-02-21T00:20:16;1.80;99.90
17148;DHT22;8689;47.364;8.796;2024-02-21T00:25:25;1.70;99.90
17148;DHT22;8689;47.364;8.796;2024-02-21T00:27:53;1.70;99.90
17148;DHT22;8689;47.364;8.796;2024-02-21T00:30:49;1.60;99.90
17148;DHT22;8689;47.364;8.796;2024-02-21T00:33:41;1.50;99.90
17148;DHT22;8689;47.364;8.796;2024-02-21T00:36:08;1.40;99.90
17148;DHT22;8689;47.364;8.796;2024-02-21T00:38:35;1.40;99.90
17148;DHT22;8689;47.364;8.796;2024-02-21T00:41:04;1.50;99.90
17148;DHT22;8689;47.364;8.796;2024-02-21T00:43:32;1.50;99.90
17148;DHT22;8689;47.364;8.796;2024-02-21T00:45:59;1.50;99.90
17148;DHT22;8689;47.364;8.796;2024-02-21T00:48:27;1.50;99.90
17148;DHT22;8689;47.364;8.796;2024-02-21T00:50:55;1.50;99.90
17148;DHT22;8689;47.364;8.796;2024-02-21T00:53:22;1.60;99.90
17148;DHT22;8689;47.364;8.796;2024-02-21T00:55:49;1.50;99.90
17148;DHT22;8689;47.364;8.796;2024-02-21T00:58:17;1.50;99.90
17148;DHT22;8689;47.364;8.796;2024-02-21T01:00:45;1.50;99.90
17148;DHT22;8689;47.364;8.796;2024-02-21T01:03:12;1.50;99.90
17148;DHT22;8689;47.364;8.796;2024-02-21T01:05:41;1.50;99.90
17148;DHT22;8689;47.364;8.796;2024-02-21T01:08:08;1.50;99.90
17148;DHT22;8689;47.364;8.796;2024-02-21T01:10:38;1.50;99.90
17148;DHT22;8689;47.364;8.796;2024-02-21T01:13:08;1.50;99.90
17148;DHT22;8689;47.364;8.796;2024-02-21T01:15:41;1.50;99.90
17148;DHT22;8689;47.364;8.796;2024-02-21T01:18:08;1.50;99.90
17148;DHT22;8689;47.364;8.796;2024-02-21T01:20:35;1.50;99.90
17148;DHT22;8689;47.364;8.796;2024-02-21T01:23:02;1.50;99.90
17148;DHT22;8689;47.364;8.796;2024-02-21T01:25:30;1.50;99.90
17148;DHT22;8689;47.364;8.796;2024-02-21T01:27:57;1.60;99.90
17148;DHT22;8689;47.364;8.796;2024-02-21T01:30:23;1.60;99.90
17148;DHT22;8689;47.364;8.796;2024-02-21T01:32:52;1.50;99.90
17148;DHT22;8689;47.364;8.796;2024-02-21T01:35:19;1.60;99.90
17148;DHT22;8689;47.364;8.796;2024-02-21T01:37:46;1.60;99.90
17148;DHT22;8689;47.364;8.796;2024-02-21T01:40:14;1.60;99.90
17148;DHT22;8689;47.364;8.796;2024-02-21T01:42:41;1.60;99.90
17148;DHT22;8689;47.364;8.796;2024-02-21T01:45:10;1.60;99.90
17148;DHT22;8689;47.364;8.796;2024-02-21T01:47:37;1.60;99.90
17148;DHT22;8689;47.364;8.796;2024-02-21T01:50:08;1.50;99.90
17148;DHT22;8689;47.364;8.796;2024-02-21T01:52:36;1.50;99.90
17148;DHT22;8689;47.364;8.796;2024-02-21T01:55:05;1.40;99.90
17148;DHT22;8689;47.364;8.796;2024-02-21T01:57:33;1.40;99.90
17148;DHT22;8689;47.364;8.796;2024-02-21T02:00:02;1.40;99.90
17148;DHT22;8689;47.364;8.796;2024-02-21T02:02:30;1.40;99.90
17148;DHT22;8689;47.364;8.796;2024-02-21T02:04:58;1.30;99.90
17148;DHT22;8689;47.364;8.796;2024-02-21T02:07:28;1.30;99.90
17148;DHT22;8689;47.364;8.796;2024-02-21T02:09:56;1.30;99.90
17148;DHT22;8689;47.364;8.796;2024-02-21T02:12:24;1.40;99.90
17148;DHT22;8689;47.364;8.796;2024-02-21T02:14:58;1.40;99.90
17148;DHT22;8689;47.364;8.796;2024-02-21T02:17:25;1.50;99.90
17148;DHT22;8689;47.364;8.796;2024-02-21T02:19:53;1.60;99.90
17148;DHT22;8689;47.364;8.796;2024-02-21T02:22:23;1.60;99.90
17148;DHT22;8689;47.364;8.796;2024-02-21T02:24:55;1.60;99.90
17148;DHT22;8689;47.364;8.796;2024-02-21T02:27:23;1.70;99.90
17148;DHT22;8689;47.364;8.796;2024-02-21T02:29:51;1.60;99.90
17148;DHT22;8689;47.364;8.796;2024-02-21T02:32:19;1.60;99.90
17148;DHT22;8689;47.364;8.796;2024-02-21T02:34:46;1.70;99.90
17148;DHT22;8689;47.364;8.796;2024-02-21T03:03:58;1.70;99.90
17148;DHT22;8689;47.364;8.796;2024-02-21T03:06:25;1.70;99.90
17148;DHT22;8689;47.364;8.796;2024-02-21T03:08:52;1.70;99.90
17148;DHT22;8689;47.364;8.796;2024-02-21T03:11:20;1.70;99.90
17148;DHT22;8689;47.364;8.796;2024-02-21T03:13:54;1.70;99.90
17148;DHT22;8689;47.364;8.796;2024-02-21T03:16:22;1.80;99.90
17148;DHT22;8689;47.364;8.796;2024-02-21T03:18:49;1.90;99.90
17148;DHT22;8689;47.364;8.796;2024-02-21T03:21:17;1.80;99.90
17148;DHT22;8689;47.364;8.796;2024-02-21T03:23:44;1.80;99.90
17148;DHT22;8689;47.364;8.796;2024-02-21T03:26:11;1.80;99.90
17148;DHT22;8689;47.364;8.796;2024-02-21T03:39:01;1.80;99.90
17148;DHT22;8689;47.364;8.796;2024-02-21T03:41:28;1.80;99.90
17148;DHT22;8689;47.364;8.796;2024-02-21T03:43:55;1.80;99.90
17148;DHT22;8689;47.364;8.796;2024-02-21T08:47:57;5.90;99.90
17148;DHT22;8689;47.364;8.796;2024-02-21T08:50:45;6.00;99.90
17148;DHT22;8689;47.364;8.796;2024-02-21T08:53:22;6.10;99.90
17148;DHT22;8689;47.364;8.796;2024-02-21T08:55:49;6.20;99.90
17148;DHT22;8689;47.364;8.796;2024-02-21T08:58:17;6.40;99.90
17148;DHT22;8689;47.364;8.796;2024-02-21T09:00:46;6.60;99.90
17148;DHT22;8689;47.364;8.796;2024-02-21T09:03:16;6.70;99.90
17148;DHT22;8689;47.364;8.796;2024-02-21T09:05:45;6.80;99.90
17148;DHT22;8689;47.364;8.796;2024-02-21T09:08:13;7.00;99.90
17148;DHT22;8689;47.364;8.796;2024-02-21T09:10:41;7.10;99.90
17148;DHT22;8689;47.364;8.796;2024-02-21T09:13:19;7.20;99.90
17148;DHT22;8689;47.364;8.796;2024-02-21T09:16:27;7.30;99.10
17148;DHT22;8689;47.364;8.796;2024-02-21T09:19:06;7.40;99.30
17148;DHT22;8689;47.364;8.796;2024-02-21T09:21:36;7.50;98.90
17148;DHT22;8689;47.364;8.796;2024-02-21T09:24:04;7.50;99.30
17148;DHT22;8689;47.364;8.796;2024-02-21T09:26:36;7.70;98.20
17148;DHT22;8689;47.364;8.796;2024-02-21T09:29:05;7.90;97.60
17148;DHT22;8689;47.364;8.796;2024-02-21T09:31:33;8.00;97.00
17148;DHT22;8689;47.364;8.796;2024-02-21T09:34:02;8.10;96.00
17148;DHT22;8689;47.364;8.796;2024-02-21T09:36:31;8.30;95.20
17148;DHT22;8689;47.364;8.796;2024-02-21T09:38:58;8.30;93.50
17148;DHT22;8689;47.364;8.796;2024-02-21T09:41:29;8.40;93.60
17148;DHT22;8689;47.364;8.796;2024-02-21T09:43:59;8.50;92.40
17148;DHT22;8689;47.364;8.796;2024-02-21T09:46:44;8.60;91.20
17148;DHT22;8689;47.364;8.796;2024-02-21T09:49:21;8.70;90.90
17148;DHT22;8689;47.364;8.796;2024-02-21T09:51:54;8.90;89.50
17148;DHT22;8689;47.364;8.796;2024-02-21T09:54:22;9.00;89.90
17148;DHT22;8689;47.364;8.796;2024-02-21T09:56:50;9.10;88.20
17148;DHT22;8689;47.364;8.796;2024-02-21T09:59:18;9.40;87.60
17148;DHT22;8689;47.364;8.796;2024-02-21T10:01:55;9.60;87.30
17148;DHT22;8689;47.364;8.796;2024-02-21T10:04:25;9.80;85.30
17148;DHT22;8689;47.364;8.796;2024-02-21T10:06:53;10.10;85.80
17148;DHT22;8689;47.364;8.796;2024-02-21T10:09:22;10.30;84.10
17148;DHT22;8689;47.364;8.796;2024-02-21T10:11:49;10.50;82.90
17148;DHT22;8689;47.364;8.796;2024-02-21T10:14:17;10.80;81.80
17148;DHT22;8689;47.364;8.796;2024-02-21T10:16:46;11.00;82.50
17148;DHT22;8689;47.364;8.796;2024-02-21T10:19:18;11.10;78.80
17148;DHT22;8689;47.364;8.796;2024-02-21T10:22:01;11.30;77.50
17148;DHT22;8689;47.364;8.796;2024-02-21T10:24:29;11.50;75.00
17148;DHT22;8689;47.364;8.796;2024-02-21T10:27:07;11.70;74.00
17148;DHT22;8689;47.364;8.796;2024-02-21T10:29:37;11.90;73.80
17148;DHT22;8689;47.364;8.796;2024-02-21T10:32:06;12.10;74.30
17148;DHT22;8689;47.364;8.796;2024-02-21T10:34:33;12.40;71.90
17148;DHT22;8689;47.364;8.796;2024-02-21T10:37:03;12.70;72.70
17148;DHT22;8689;47.364;8.796;2024-02-21T10:39:31;12.60;68.20
17148;DHT22;8689;47.364;8.796;2024-02-21T10:42:00;12.30;70.00
17148;DHT22;8689;47.364;8.796;2024-02-21T10:44:30;12.20;71.50
17148;DHT22;8689;47.364;8.796;2024-02-21T10:46:58;12.10;72.00
17148;DHT22;8689;47.364;8.796;2024-02-21T10:49:26;12.10;71.70
17148;DHT22;8689;47.364;8.796;2024-02-21T10:51:58;12.10;71.70
17148;DHT22;8689;47.364;8.796;2024-02-21T10:54:44;12.10;69.30
17148;DHT22;8689;47.364;8.796;2024-02-21T10:57:13;12.30;70.70
17148;DHT22;8689;47.364;8.796;2024-02-21T10:59:41;12.30;68.80
17148;DHT22;8689;47.364;8.796;2024-02-21T11:02:09;12.30;69.60
17148;DHT22;8689;47.364;8.796;2024-02-21T11:04:37;12.50;67.40
17148;DHT22;8689;47.364;8.796;2024-02-21T11:07:05;12.50;66.40
17148;DHT22;8689;47.364;8.796;2024-02-21T11:09:33;12.50;67.70
17148;DHT22;8689;47.364;8.796;2024-02-21T11:12:05;12.70;65.60
17148;DHT22;8689;47.364;8.796;2024-02-21T11:14:32;12.80;64.80
17148;DHT22;8689;47.364;8.796;2024-02-21T11:17:02;12.90;64.70
17148;DHT22;8689;47.364;8.796;2024-02-21T11:19:30;13.10;65.00
17148;DHT22;8689;47.364;8.796;2024-02-21T11:21:58;13.30;65.50
17148;DHT22;8689;47.364;8.796;2024-02-21T11:24:28;13.60;64.80
17148;DHT22;8689;47.364;8.796;2024-02-21T11:26:56;13.80;63.70
17148;DHT22;8689;47.364;8.796;2024-02-21T11:29:25;13.90;63.00
17148;DHT22;8689;47.364;8.796;2024-02-21T11:31:53;14.30;62.30
17148;DHT22;8689;47.364;8.796;2024-02-21T11:34:21;14.50;61.50
17148;DHT22;8689;47.364;8.796;2024-02-21T11:36:49;14.50;60.60
17148;DHT22;8689;47.364;8.796;2024-02-21T11:39:21;14.50;60.30
17148;DHT22;8689;47.364;8.796;2024-02-21T11:42:00;14.50;61.50
17148;DHT22;8689;47.364;8.796;2024-02-21T11:44:29;14.90;60.70
17148;DHT22;8689;47.364;8.796;2024-02-21T11:46:57;14.90;59.00
17148;DHT22;8689;47.364;8.796;2024-02-21T11:49:25;15.10;58.80
17148;DHT22;8689;47.364;8.796;2024-02-21T11:52:03;15.20;59.50
17148;DHT22;8689;47.364;8.796;2024-02-21T11:54:30;15.20;58.70
17148;DHT22;8689;47.364;8.796;2024-02-21T11:56:58;15.20;58.30
17148;DHT22;8689;47.364;8.796;2024-02-21T11:59:25;15.10;58.30
17148;DHT22;8689;47.364;8.796;2024-02-21T12:01:54;15.00;57.50
17148;DHT22;8689;47.364;8.796;2024-02-21T12:04:23;15.00;59.60
17148;DHT22;8689;47.364;8.796;2024-02-21T12:06:52;14.80;58.30
17148;DHT22;8689;47.364;8.796;2024-02-21T12:09:20;15.00;59.10
17148;DHT22;8689;47.364;8.796;2024-02-21T12:11:57;15.10;59.10
17148;DHT22;8689;47.364;8.796;2024-02-21T12:14:25;15.20;58.40
17148;DHT22;8689;47.364;8.796;2024-02-21T12:16:55;15.30;57.70
17148;DHT22;8689;47.364;8.796;2024-02-21T12:19:22;15.40;58.30
17148;DHT22;8689;47.364;8.796;2024-02-21T12:21:49;15.50;57.60
17148;DHT22;8689;47.364;8.796;2024-02-21T12:24:21;15.70;57.30
17148;DHT22;8689;47.364;8.796;2024-02-21T12:26:48;15.70;56.20
17148;DHT22;8689;47.364;8.796;2024-02-21T12:29:16;15.80;56.70
17148;DHT22;8689;47.364;8.796;2024-02-21T12:31:43;15.90;57.00
17148;DHT22;8689;47.364;8.796;2024-02-21T12:34:14;15.60;56.50
17148;DHT22;8689;47.364;8.796;2024-02-21T12:36:46;15.40;56.60
17148;DHT22;8689;47.364;8.796;2024-02-21T12:39:14;15.10;56.60
17148;DHT22;8689;47.364;8.796;2024-02-21T12:41:42;15.00;57.10
17148;DHT22;8689;47.364;8.796;2024-02-21T12:44:10;15.00;58.20
17148;DHT22;8689;47.364;8.796;2024-02-21T12:46:38;14.90;59.30
17148;DHT22;8689;47.364;8.796;2024-02-21T12:49:06;15.10;57.70
17148;DHT22;8689;47.364;8.796;2024-02-21T12:51:35;14.90;57.20
17148;DHT22;8689;47.364;8.796;2024-02-21T12:54:03;14.90;59.20
17148;DHT22;8689;47.364;8.796;2024-02-21T12:56:30;14.80;59.20
17148;DHT22;8689;47.364;8.796;2024-02-21T12:58:57;14.70;59.40
17148;DHT22;8689;47.364;8.796;2024-02-21T13:01:25;14.70;59.60
17148;DHT22;8689;47.364;8.796;2024-02-21T13:03:53;14.90;60.30
17148;DHT22;8689;47.364;8.796;2024-02-21T13:06:21;14.90;58.70
17148;DHT22;8689;47.364;8.796;2024-02-21T13:08:50;14.80;58.80
17148;DHT22;8689;47.364;8.796;2024-02-21T13:11:18;14.90;59.30
17148;DHT22;8689;47.364;8.796;2024-02-21T13:13:45;14.90;59.80
17148;DHT22;8689;47.364;8.796;2024-02-21T13:16:12;14.80;58.70
17148;DHT22;8689;47.364;8.796;2024-02-21T13:18:39;14.80;59.20
17148;DHT22;8689;47.364;8.796;2024-02-21T13:21:08;14.70;57.70
17148;DHT22;8689;47.364;8.796;2024-02-21T13:23:35;14.60;58.40
17148;DHT22;8689;47.364;8.796;2024-02-21T13:26:04;14.60;58.70
17148;DHT22;8689;47.364;8.796;2024-02-21T13:28:31;14.60;58.80
17148;DHT22;8689;47.364;8.796;2024-02-21T13:30:58;14.60;58.30
17148;DHT22;8689;47.364;8.796;2024-02-21T13:33:25;14.60;59.10
17148;DHT22;8689;47.364;8.796;2024-02-21T13:35:54;14.60;59.20
17148;DHT22;8689;47.364;8.796;2024-02-21T13:38:22;14.70;59.30
17148;DHT22;8689;47.364;8.796;2024-02-21T13:40:49;14.80;59.40
17148;DHT22;8689;47.364;8.796;2024-02-21T13:43:18;14.90;58.70
17148;DHT22;8689;47.364;8.796;2024-02-21T13:45:56;14.80;58.40
17148;DHT22;8689;47.364;8.796;2024-02-21T13:48:23;14.70;58.40
17148;DHT22;8689;47.364;8.796;2024-02-21T13:50:51;14.50;59.70
17148;DHT22;8689;47.364;8.796;2024-02-21T13:53:21;14.20;59.40
17148;DHT22;8689;47.364;8.796;2024-02-21T13:55:48;14.10;59.90
17148;DHT22;8689;47.364;8.796;2024-02-21T13:58:16;14.00;60.60
17148;DHT22;8689;47.364;8.796;2024-02-21T14:00:45;13.80;58.90
17148;DHT22;8689;47.364;8.796;2024-02-21T14:03:13;13.60;59.50
17148;DHT22;8689;47.364;8.796;2024-02-21T14:05:40;13.60;60.60
17148;DHT22;8689;47.364;8.796;2024-02-21T14:08:09;13.50;61.30
17148;DHT22;8689;47.364;8.796;2024-02-21T14:10:36;13.40;61.90
17148;DHT22;8689;47.364;8.796;2024-02-21T14:13:04;13.30;62.70
17148;DHT22;8689;47.364;8.796;2024-02-21T14:15:31;13.20;62.60
17148;DHT22;8689;47.364;8.796;2024-02-21T14:18:00;13.10;62.10
17148;DHT22;8689;47.364;8.796;2024-02-21T14:20:27;13.00;61.60
17148;DHT22;8689;47.364;8.796;2024-02-21T14:22:56;13.00;62.50
17148;DHT22;8689;47.364;8.796;2024-02-21T14:25:23;12.90;64.20
17148;DHT22;8689;47.364;8.796;2024-02-21T14:27:50;12.80;63.90
17148;DHT22;8689;47.364;8.796;2024-02-21T14:30:18;12.70;63.50
17148;DHT22;8689;47.364;8.796;2024-02-21T14:32:45;12.60;66.00
17148;DHT22;8689;47.364;8.796;2024-02-21T14:35:14;12.40;65.50
17148;DHT22;8689;47.364;8.796;2024-02-21T14:37:41;12.40;66.30
17148;DHT22;8689;47.364;8.796;2024-02-21T14:40:09;12.30;64.90
17148;DHT22;8689;47.364;8.796;2024-02-21T14:42:36;12.10;65.20
17148;DHT22;8689;47.364;8.796;2024-02-21T14:45:05;12.10;66.40
17148;DHT22;8689;47.364;8.796;2024-02-21T14:47:33;12.10;68.40
17148;DHT22;8689;47.364;8.796;2024-02-21T14:50:02;12.10;67.20
17148;DHT22;8689;47.364;8.796;2024-02-21T14:52:31;12.10;67.40
17148;DHT22;8689;47.364;8.796;2024-02-21T14:55:00;12.10;68.00
17148;DHT22;8689;47.364;8.796;2024-02-21T14:57:28;12.10;68.40
17148;DHT22;8689;47.364;8.796;2024-02-21T14:59:56;12.10;68.60
17148;DHT22;8689;47.364;8.796;2024-02-21T15:02:24;12.10;67.80
17148;DHT22;8689;47.364;8.796;2024-02-21T15:04:53;12.10;69.50
17148;DHT22;8689;47.364;8.796;2024-02-21T15:07:21;12.20;69.20
17148;DHT22;8689;47.364;8.796;2024-02-21T15:09:51;12.20;68.10
17148;DHT22;8689;47.364;8.796;2024-02-21T15:12:18;12.10;68.30
17148;DHT22;8689;47.364;8.796;2024-02-21T15:14:47;12.10;68.80
17148;DHT22;8689;47.364;8.796;2024-02-21T15:17:14;12.00;67.90
17148;DHT22;8689;47.364;8.796;2024-02-21T15:19:42;12.00;69.70
17148;DHT22;8689;47.364;8.796;2024-02-21T15:22:10;11.90;69.30
17148;DHT22;8689;47.364;8.796;2024-02-21T15:24:38;11.90;69.70
17148;DHT22;8689;47.364;8.796;2024-02-21T15:27:07;11.90;69.60
17148;DHT22;8689;47.364;8.796;2024-02-21T15:29:35;11.90;69.40
17148;DHT22;8689;47.364;8.796;2024-02-21T15:32:03;11.90;69.60
17148;DHT22;8689;47.364;8.796;2024-02-21T15:34:30;11.80;68.40
17148;DHT22;8689;47.364;8.796;2024-02-21T15:36:58;11.80;67.30
17148;DHT22;8689;47.364;8.796;2024-02-21T15:39:25;11.80;69.70
17148;DHT22;8689;47.364;8.796;2024-02-21T15:41:53;11.70;69.00
17148;DHT22;8689;47.364;8.796;2024-02-21T15:44:27;11.60;68.40
17148;DHT22;8689;47.364;8.796;2024-02-21T15:46:54;11.60;69.90
17148;DHT22;8689;47.364;8.796;2024-02-21T15:49:22;11.50;70.90
17148;DHT22;8689;47.364;8.796;2024-02-21T15:51:49;11.50;73.70
17148;DHT22;8689;47.364;8.796;2024-02-21T15:54:17;11.40;72.40
17148;DHT22;8689;47.364;8.796;2024-02-21T15:56:44;11.30;72.90
17148;DHT22;8689;47.364;8.796;2024-02-21T15:59:12;11.20;75.10
17148;DHT22;8689;47.364;8.796;2024-02-21T16:01:41;11.00;75.20
17148;DHT22;8689;47.364;8.796;2024-02-21T16:04:09;10.90;75.70
17148;DHT22;8689;47.364;8.796;2024-02-21T16:06:37;10.80;79.20
17148;DHT22;8689;47.364;8.796;2024-02-21T16:09:05;10.60;82.80
17148;DHT22;8689;47.364;8.796;2024-02-21T16:11:34;10.50;82.80
17148;DHT22;8689;47.364;8.796;2024-02-21T16:14:02;10.40;82.00
17148;DHT22;8689;47.364;8.796;2024-02-21T16:16:30;10.20;85.90
17148;DHT22;8689;47.364;8.796;2024-02-21T16:19:00;10.10;84.50
17148;DHT22;8689;47.364;8.796;2024-02-21T16:21:31;10.00;83.00
17148;DHT22;8689;47.364;8.796;2024-02-21T16:23:58;9.90;84.50
17148;DHT22;8689;47.364;8.796;2024-02-21T16:26:26;9.80;82.50
17148;DHT22;8689;47.364;8.796;2024-02-21T16:28:54;9.80;83.20
17148;DHT22;8689;47.364;8.796;2024-02-21T16:31:22;9.70;83.70
17148;DHT22;8689;47.364;8.796;2024-02-21T16:33:49;9.70;83.70
17148;DHT22;8689;47.364;8.796;2024-02-21T16:36:24;9.60;84.10
17148;DHT22;8689;47.364;8.796;2024-02-21T16:38:52;9.60;85.50
17148;DHT22;8689;47.364;8.796;2024-02-21T16:41:20;9.50;85.90
17148;DHT22;8689;47.364;8.796;2024-02-21T16:43:48;9.50;86.90
17148;DHT22;8689;47.364;8.796;2024-02-21T16:46:15;9.40;86.00
17148;DHT22;8689;47.364;8.796;2024-02-21T16:48:44;9.30;86.90
17148;DHT22;8689;47.364;8.796;2024-02-21T16:51:11;9.20;87.60
17148;DHT22;8689;47.364;8.796;2024-02-21T16:53:40;9.20;89.50
17148;DHT22;8689;47.364;8.796;2024-02-21T16:56:07;9.10;90.10
17148;DHT22;8689;47.364;8.796;2024-02-21T16:58:35;9.00;91.80
17148;DHT22;8689;47.364;8.796;2024-02-21T17:01:03;8.90;92.10
17148;DHT22;8689;47.364;8.796;2024-02-21T17:03:33;8.80;91.70
17148;DHT22;8689;47.364;8.796;2024-02-21T17:06:01;8.80;92.10
17148;DHT22;8689;47.364;8.796;2024-02-21T17:08:29;8.70;92.00
17148;DHT22;8689;47.364;8.796;2024-02-21T17:10:58;8.70;92.00
17148;DHT22;8689;47.364;8.796;2024-02-21T17:13:26;8.60;92.40
17148;DHT22;8689;47.364;8.796;2024-02-21T17:15:57;8.50;92.40
17148;DHT22;8689;47.364;8.796;2024-02-21T17:18:25;8.50;93.90
17148;DHT22;8689;47.364;8.796;2024-02-21T17:20:54;8.50;93.60
17148;DHT22;8689;47.364;8.796;2024-02-21T17:23:21;8.50;94.10
17148;DHT22;8689;47.364;8.796;2024-02-21T17:25:48;8.40;94.70
17148;DHT22;8689;47.364;8.796;2024-02-21T17:28:16;8.40;94.30
17148;DHT22;8689;47.364;8.796;2024-02-21T17:30:43;8.30;94.20
17148;DHT22;8689;47.364;8.796;2024-02-21T17:33:11;8.30;95.40
17148;DHT22;8689;47.364;8.796;2024-02-21T17:35:39;8.30;95.30
17148;DHT22;8689;47.364;8.796;2024-02-21T17:38:09;8.20;96.30
17148;DHT22;8689;47.364;8.796;2024-02-21T17:40:36;8.10;97.20
17148;DHT22;8689;47.364;8.796;2024-02-21T17:43:03;8.10;97.30
17148;DHT22;8689;47.364;8.796;2024-02-21T17:45:33;8.00;98.30
17148;DHT22;8689;47.364;8.796;2024-02-21T17:48:00;8.00;98.90
17148;DHT22;8689;47.364;8.796;2024-02-21T17:50:27;8.00;97.10
17148;DHT22;8689;47.364;8.796;2024-02-21T17:52:54;8.00;97.50
17148;DHT22;8689;47.364;8.796;2024-02-21T17:55:22;8.10;97.70
17148;DHT22;8689;47.364;8.796;2024-02-21T17:57:48;8.10;97.30
17148;DHT22;8689;47.364;8.796;2024-02-21T18:00:17;8.10;98.40
17148;DHT22;8689;47.364;8.796;2024-02-21T18:02:46;8.10;98.70
17148;DHT22;8689;47.364;8.796;2024-02-21T18:05:15;8.10;98.90
17148;DHT22;8689;47.364;8.796;2024-02-21T18:07:42;8.00;98.60
17148;DHT22;8689;47.364;8.796;2024-02-21T18:10:10;8.00;99.90
17148;DHT22;8689;47.364;8.796;2024-02-21T18:12:37;8.00;99.90
17148;DHT22;8689;47.364;8.796;2024-02-21T18:15:07;7.90;99.90
17148;DHT22;8689;47.364;8.796;2024-02-21T18:17:35;7.80;99.90
17148;DHT22;8689;47.364;8.796;2024-02-21T18:20:07;7.90;99.90
17148;DHT22;8689;47.364;8.796;2024-02-21T18:22:35;7.90;99.90
17148;DHT22;8689;47.364;8.796;2024-02-21T18:25:03;7.90;99.60
17148;DHT22;8689;47.364;8.796;2024-02-21T18:27:34;7.90;98.30
17148;DHT22;8689;47.364;8.796;2024-02-21T18:30:01;7.90;99.60
17148;DHT22;8689;47.364;8.796;2024-02-21T18:32:29;7.90;99.50
17148;DHT22;8689;47.364;8.796;2024-02-21T18:34:56;7.80;99.90
17148;DHT22;8689;47.364;8.796;2024-02-21T18:37:25;7.80;99.90
17148;DHT22;8689;47.364;8.796;2024-02-21T18:39:52;7.80;99.90
17148;DHT22;8689;47.364;8.796;2024-02-21T18:42:20;7.70;99.90
17148;DHT22;8689;47.364;8.796;2024-02-21T18:44:47;7.60;99.90
17148;DHT22;8689;47.364;8.796;2024-02-21T18:47:15;7.60;99.90
17148;DHT22;8689;47.364;8.796;2024-02-21T18:49:43;7.60;99.90
17148;DHT22;8689;47.364;8.796;2024-02-21T18:52:10;7.60;99.90
17148;DHT22;8689;47.364;8.796;2024-02-21T18:54:40;7.60;99.90
17148;DHT22;8689;47.364;8.796;2024-02-21T18:57:08;7.50;99.90
17148;DHT22;8689;47.364;8.796;2024-02-21T18:59:37;7.50;99.90
17148;DHT22;8689;47.364;8.796;2024-02-21T19:02:05;7.40;99.90
17148;DHT22;8689;47.364;8.796;2024-02-21T19:04:32;7.40;99.90
17148;DHT22;8689;47.364;8.796;2024-02-21T19:07:00;7.30;99.90
17148;DHT22;8689;47.364;8.796;2024-02-21T19:09:27;7.30;99.90
17148;DHT22;8689;47.364;8.796;2024-02-21T19:11:56;7.20;99.90
17148;DHT22;8689;47.364;8.796;2024-02-21T19:14:23;7.20;99.90
17148;DHT22;8689;47.364;8.796;2024-02-21T19:16:50;7.20;99.90
17148;DHT22;8689;47.364;8.796;2024-02-21T19:19:17;7.10;99.90
17148;DHT22;8689;47.364;8.796;2024-02-21T19:21:45;7.10;99.90
17148;DHT22;8689;47.364;8.796;2024-02-21T19:24:12;7.10;99.90
17148;DHT22;8689;47.364;8.796;2024-02-21T19:26:40;7.10;99.90
17148;DHT22;8689;47.364;8.796;2024-02-21T19:29:09;7.10;99.90
17148;DHT22;8689;47.364;8.796;2024-02-21T19:31:37;7.10;99.90
17148;DHT22;8689;47.364;8.796;2024-02-21T19:34:04;7.10;99.90
17148;DHT22;8689;47.364;8.796;2024-02-21T19:36:32;7.10;99.90
17148;DHT22;8689;47.364;8.796;2024-02-21T19:39:04;7.10;99.90
17148;DHT22;8689;47.364;8.796;2024-02-21T19:41:31;7.10;99.90
17148;DHT22;8689;47.364;8.796;2024-02-21T19:43:58;7.10;99.90
17148;DHT22;8689;47.364;8.796;2024-02-21T19:46:27;7.10;99.90
17148;DHT22;8689;47.364;8.796;2024-02-21T19:48:54;7.10;99.90
17148;DHT22;8689;47.364;8.796;2024-02-21T19:51:22;7.10;99.90
17148;DHT22;8689;47.364;8.796;2024-02-21T19:53:51;7.10;99.90
17148;DHT22;8689;47.364;8.796;2024-02-21T19:56:25;7.20;99.90
17148;DHT22;8689;47.364;8.796;2024-02-21T19:58:53;7.20;99.90
17148;DHT22;8689;47.364;8.796;2024-02-21T20:01:51;7.30;99.90
17148;DHT22;8689;47.364;8.796;2024-02-21T20:08:02;7.40;99.90
17148;DHT22;8689;47.364;8.796;2024-02-21T20:10:43;7.50;99.90
17148;DHT22;8689;47.364;8.796;2024-02-21T20:13:16;7.50;99.90
17148;DHT22;8689;47.364;8.796;2024-02-21T20:15:47;7.60;99.90
17148;DHT22;8689;47.364;8.796;2024-02-21T20:18:32;7.70;99.90
17148;DHT22;8689;47.364;8.796;2024-02-21T20:21:03;7.60;99.90
17148;DHT22;8689;47.364;8.796;2024-02-21T20:23:31;7.60;99.90
17148;DHT22;8689;47.364;8.796;2024-02-21T20:25:58;7.60;99.90
17148;DHT22;8689;47.364;8.796;2024-02-21T20:28:26;7.60;99.90
17148;DHT22;8689;47.364;8.796;2024-02-21T20:30:53;7.60;99.90
17148;DHT22;8689;47.364;8.796;2024-02-21T20:33:20;7.60;99.90
17148;DHT22;8689;47.364;8.796;2024-02-21T20:35:49;7.60;99.90
17148;DHT22;8689;47.364;8.796;2024-02-21T20:38:16;7.60;99.90
17148;DHT22;8689;47.364;8.796;2024-02-21T20:40:43;7.50;99.90
17148;DHT22;8689;47.364;8.796;2024-02-21T20:43:11;7.50;99.90
17148;DHT22;8689;47.364;8.796;2024-02-21T20:45:38;7.50;99.90
17148;DHT22;8689;47.364;8.796;2024-02-21T20:48:07;7.50;99.90
17148;DHT22;8689;47.364;8.796;2024-02-21T20:50:34;7.50;99.90
17148;DHT22;8689;47.364;8.796;2024-02-21T20:53:03;7.50;99.90
17148;DHT22;8689;47.364;8.796;2024-02-21T20:55:30;7.50;99.90
17148;DHT22;8689;47.364;8.796;2024-02-21T20:57:58;7.50;99.90
17148;DHT22;8689;47.364;8.796;2024-02-21T21:00:25;7.40;99.90
17148;DHT22;8689;47.364;8.796;2024-02-21T21:02:52;7.40;99.90
17148;DHT22;8689;47.364;8.796;2024-02-21T21:05:19;7.40;99.90
17148;DHT22;8689;47.364;8.796;2024-02-21T21:07:50;7.30;99.90
17148;DHT22;8689;47.364;8.796;2024-02-21T21:10:19;7.30;99.90
17148;DHT22;8689;47.364;8.796;2024-02-21T21:12:46;7.20;99.90
17148;DHT22;8689;47.364;8.796;2024-02-21T21:15:14;7.20;99.90
17148;DHT22;8689;47.364;8.796;2024-02-21T21:17:41;7.20;99.90
17148;DHT22;8689;47.364;8.796;2024-02-21T21:20:09;7.20;99.90
17148;DHT22;8689;47.364;8.796;2024-02-21T21:22:37;7.30;99.90
17148;DHT22;8689;47.364;8.796;2024-02-21T21:25:06;7.30;99.90
17148;DHT22;8689;47.364;8.796;2024-02-21T21:27:36;7.40;99.90
17148;DHT22;8689;47.364;8.796;2024-02-21T21:30:08;7.40;99.90
17148;DHT22;8689;47.364;8.796;2024-02-21T21:32:35;7.50;99.90
17148;DHT22;8689;47.364;8.796;2024-02-21T21:35:04;7.50;99.90
17148;DHT22;8689;47.364;8.796;2024-02-21T21:37:31;7.50;99.90
17148;DHT22;8689;47.364;8.796;2024-02-21T21:39:58;7.50;99.90
17148;DHT22;8689;47.364;8.796;2024-02-21T21:42:26;7.50;99.90
17148;DHT22;8689;47.364;8.796;2024-02-21T21:44:55;7.50;99.90
17148;DHT22;8689;47.364;8.796;2024-02-21T21:47:22;7.50;99.90
17148;DHT22;8689;47.364;8.796;2024-02-21T21:49:50;7.50;99.90
17148;DHT22;8689;47.364;8.796;2024-02-21T21:52:17;7.40;99.90